Arpin, Wisconsin
Current Conditions -  °F | °C
As of 4:54 PM on Tuesday 27 Jan 2015 (Local Time) from KMFI Reporting Station
Overcast Overcast  
Wind Chill: -4°   Ceiling: 1400
Heat Index: -4°   Visibility: 7mi
Dew Point: -7°   Wind: 3mph
Humidity: 81%   Direction: 180°S
Pressure: 30.19"   Gusts: NA
Location:  44.54°N, 90.04°W
Report Text: KMFI 272254Z AUTO 18003KT 7SM OVC014 M04/M07 A3019 RMK AO2 SLP244 T10391067
Loading
Personal Weather Stations






























Interactive Weather Map New forecast layout! Learn more

10-Day Weather Forecast

Advertisements
Track Severe Weather on mobile